Time;durP1;ratioP1;P1;durP2;ratioP2;P2;SDS_P1;SDS_P2;PMS_P1;PMS_P2;Temp;Humidity;BMP_temperature;BMP_pressure;BME280_temperature;BME280_humidity;BME280_pressure;Samples;Min_cycle;Max_cycle;Signal;HPM_P1;HPM_P2
2023/07/22 00:00:46;;;;;;;1.27;1.05;;;;;;;;;;10281861;28;20105;-91
2023/07/22 00:05:50;;;;;;;1.60;1.20;;;;;;;;;;10266898;28;20043;-91
2023/07/22 00:10:55;;;;;;;1.05;0.95;;;;;;;;;;10251223;28;20047;-91
2023/07/22 00:15:59;;;;;;;2.25;1.35;;;;;;;;;;10264498;28;20045;-91
2023/07/22 00:21:03;;;;;;;1.38;1.08;;;;;;;;;;10254078;28;20063;-91
2023/07/22 00:26:09;;;;;;;1.77;1.00;;;;;;;;;;10284580;28;20043;-93
2023/07/22 00:31:13;;;;;;;1.20;1.10;;;;;;;;;;10285288;28;20046;-93
2023/07/22 00:36:17;;;;;;;1.60;1.10;;;;;;;;;;10268361;28;20046;-92
2023/07/22 00:41:22;;;;;;;1.17;1.08;;;;;;;;;;10266776;28;20046;-92
2023/07/22 00:46:26;;;;;;;1.27;1.10;;;;;;;;;;10267461;28;20046;-92
2023/07/22 00:51:30;;;;;;;1.63;1.20;;;;;;;;;;10279246;28;20102;-93
2023/07/22 00:56:37;;;;;;;2.58;1.20;;;;;;;;;;10248652;28;20138;-92
2023/07/22 01:01:42;;;;;;;1.73;1.25;;;;;;;;;;10282262;28;20061;-92
2023/07/22 01:06:46;;;;;;;2.60;1.50;;;;;;;;;;10267513;28;20054;-92
2023/07/22 01:11:51;;;;;;;1.50;1.40;;;;;;;;;;10283100;28;20042;-92
2023/07/22 01:16:55;;;;;;;1.08;0.95;;;;;;;;;;10266374;28;20050;-92
2023/07/22 01:22:00;;;;;;;1.40;1.30;;;;;;;;;;10281358;28;20066;-93
2023/07/22 01:27:09;;;;;;;2.92;1.40;;;;;;;;;;10282073;28;20698;-92
2023/07/22 01:32:13;;;;;;;1.20;0.88;;;;;;;;;;10265806;28;20042;-92
2023/07/22 01:37:17;;;;;;;1.33;1.20;;;;;;;;;;10265817;28;20095;-92
2023/07/22 01:42:23;;;;;;;2.10;1.30;;;;;;;;;;10281315;28;20058;-92
2023/07/22 01:47:26;;;;;;;0.90;0.90;;;;;;;;;;10265479;28;20617;-92
2023/07/22 01:52:37;;;;;;;1.65;1.42;;;;;;;;;;10281723;28;20075;-92
2023/07/22 01:57:44;;;;;;;1.40;1.30;;;;;;;;;;10265614;28;20054;-91
2023/07/22 02:02:48;;;;;;;1.23;1.13;;;;;;;;;;10265571;28;20047;-93
2023/07/22 02:07:55;;;;;;;1.80;1.42;;;;;;;;;;10265305;28;20062;-93
2023/07/22 02:13:00;;;;;;;1.55;1.40;;;;;;;;;;10269312;28;20046;-92
2023/07/22 02:18:04;;;;;;;2.50;1.75;;;;;;;;;;10272591;28;20075;-91
2023/07/22 02:23:08;;;;;;;2.13;1.50;;;;;;;;;;10271948;28;20102;-91
2023/07/22 02:28:15;;;;;;;1.45;1.35;;;;;;;;;;10288544;28;20137;-92
2023/07/22 02:33:19;;;;;;;1.70;1.30;;;;;;;;;;10272064;28;20043;-91
2023/07/22 02:38:23;;;;;;;2.20;1.75;;;;;;;;;;10289715;28;20054;-92
2023/07/22 02:43:28;;;;;;;2.67;1.50;;;;;;;;;;10287042;28;20471;-92
2023/07/22 02:48:32;;;;;;;3.35;1.40;;;;;;;;;;10270857;28;20045;-92
2023/07/22 02:53:36;;;;;;;1.50;1.40;;;;;;;;;;10270659;28;20058;-92
2023/07/22 02:58:43;;;;;;;1.65;1.40;;;;;;;;;;10271690;28;20059;-92
2023/07/22 03:03:47;;;;;;;1.50;1.17;;;;;;;;;;10271501;28;20042;-92
2023/07/22 03:08:51;;;;;;;1.55;1.10;;;;;;;;;;10268644;28;20078;-92
2023/07/22 03:13:57;;;;;;;2.67;1.25;;;;;;;;;;10285791;28;20054;-92
2023/07/22 03:19:01;;;;;;;1.95;1.65;;;;;;;;;;10287383;28;20121;-93
2023/07/22 03:24:05;;;;;;;1.73;1.40;;;;;;;;;;10269307;28;20126;-93
2023/07/22 03:29:10;;;;;;;1.77;1.40;;;;;;;;;;10230699;29;20199;-93
2023/07/22 03:34:14;;;;;;;1.50;1.40;;;;;;;;;;10229579;29;20047;-92
2023/07/22 03:39:18;;;;;;;1.30;1.20;;;;;;;;;;10230764;29;20039;-92
2023/07/22 03:44:25;;;;;;;1.95;1.35;;;;;;;;;;10229851;29;20036;-92
2023/07/22 03:49:29;;;;;;;2.45;1.67;;;;;;;;;;10230307;29;20094;-92
2023/07/22 03:54:33;;;;;;;2.05;1.55;;;;;;;;;;10247099;28;20047;-92
2023/07/22 03:59:42;;;;;;;1.85;1.50;;;;;;;;;;10230179;29;20059;-93
2023/07/22 04:04:49;;;;;;;1.85;1.30;;;;;;;;;;10229348;29;20074;-93
2023/07/22 04:09:53;;;;;;;2.38;1.63;;;;;;;;;;10228551;29;20054;-93
2023/07/22 04:15:00;;;;;;;1.80;1.60;;;;;;;;;;10227826;29;20054;-93
2023/07/22 04:20:08;;;;;;;1.38;1.27;;;;;;;;;;10229104;29;20071;-94
2023/07/22 04:25:12;;;;;;;1.40;1.17;;;;;;;;;;10228125;29;20625;-92
2023/07/22 04:30:20;;;;;;;4.03;1.60;;;;;;;;;;10228764;29;20087;-92
2023/07/22 04:35:25;;;;;;;1.60;1.42;;;;;;;;;;10227657;28;20106;-92
2023/07/22 04:40:30;;;;;;;1.73;1.50;;;;;;;;;;10226801;29;20055;-92
2023/07/22 04:45:35;;;;;;;1.38;1.25;;;;;;;;;;10229666;28;20047;-94
2023/07/22 04:50:40;;;;;;;1.40;1.30;;;;;;;;;;10229796;28;20062;-92
2023/07/22 04:55:44;;;;;;;1.80;1.27;;;;;;;;;;10229403;28;20055;-93
2023/07/22 05:00:49;;;;;;;3.35;1.42;;;;;;;;;;10232201;28;20051;-92
2023/07/22 05:05:53;;;;;;;1.85;1.52;;;;;;;;;;10229748;29;20424;-94
2023/07/22 05:10:57;;;;;;;1.52;1.40;;;;;;;;;;10226394;28;20047;-92
2023/07/22 05:16:02;;;;;;;1.67;1.27;;;;;;;;;;10228495;28;20071;-93
2023/07/22 05:21:06;;;;;;;3.92;1.67;;;;;;;;;;10246441;29;20043;-93
2023/07/22 05:26:10;;;;;;;1.88;1.70;;;;;;;;;;10226465;29;20042;-92
2023/07/22 05:31:16;;;;;;;1.80;1.60;;;;;;;;;;10226079;28;20059;-92
2023/07/22 05:36:20;;;;;;;;;;;;;;;;;;10227027;28;20118;-91
2023/07/22 05:41:24;;;;;;;1.25;1.15;;;;;;;;;;10226207;28;19923;-93
2023/07/22 05:46:32;;;;;;;1.92;1.30;;;;;;;;;;10229531;28;20093;-93
2023/07/22 05:51:35;;;;;;;2.20;1.55;;;;;;;;;;10235944;28;20043;-92
2023/07/22 05:56:39;;;;;;;1.45;1.20;;;;;;;;;;10231297;28;20074;-93
2023/07/22 06:01:45;;;;;;;1.98;1.30;;;;;;;;;;10230893;28;20139;-92
2023/07/22 06:06:48;;;;;;;1.65;1.50;;;;;;;;;;10234552;28;20054;-92
2023/07/22 06:11:54;;;;;;;;;;;;;;;;;;10240269;28;20458;-92
2023/07/22 06:17:00;;;;;;;1.50;1.23;;;;;;;;;;10245209;28;20401;-92
2023/07/22 06:22:03;;;;;;;1.60;1.33;;;;;;;;;;10257060;28;20587;-93
2023/07/22 06:27:11;;;;;;;1.63;1.13;;;;;;;;;;10266184;28;20560;-92
2023/07/22 06:32:17;;;;;;;2.30;1.40;;;;;;;;;;10246673;28;20053;-94
2023/07/22 06:37:24;;;;;;;1.67;1.33;;;;;;;;;;10241610;28;20103;-92
2023/07/22 06:42:28;;;;;;;1.55;1.25;;;;;;;;;;10282904;28;20057;-92
2023/07/22 06:47:33;;;;;;;1.50;1.13;;;;;;;;;;10258613;28;20130;-93
2023/07/22 06:52:37;;;;;;;1.57;1.00;;;;;;;;;;10282223;28;21350;-93
2023/07/22 06:57:41;;;;;;;1.55;1.08;;;;;;;;;;10281468;28;20462;-92
2023/07/22 07:02:46;;;;;;;2.05;1.27;;;;;;;;;;10266684;28;20049;-92
2023/07/22 07:07:51;;;;;;;3.15;2.13;;;;;;;;;;10255544;28;20081;-92
2023/07/22 07:12:58;;;;;;;2.13;1.60;;;;;;;;;;10265781;28;20087;-93
2023/07/22 07:18:10;;;;;;;2.72;2.10;;;;;;;;;;10234624;28;20058;-92
2023/07/22 07:23:21;;;;;;;2.92;2.10;;;;;;;;;;10271462;28;20039;-93
2023/07/22 07:28:25;;;;;;;6.25;3.05;;;;;;;;;;10279755;28;20051;-92
2023/07/22 07:33:32;;;;;;;3.40;2.63;;;;;;;;;;10236265;28;20522;-92
2023/07/22 07:38:37;;;;;;;4.78;3.17;;;;;;;;;;10258529;28;20054;-92
2023/07/22 07:43:41;;;;;;;3.25;2.60;;;;;;;;;;10259933;28;20062;-92
2023/07/22 07:48:48;;;;;;;3.10;2.50;;;;;;;;;;10238628;28;20142;-93
2023/07/22 07:53:52;;;;;;;2.75;2.33;;;;;;;;;;10260739;28;20113;-91
2023/07/22 07:58:56;;;;;;;2.40;1.88;;;;;;;;;;10294522;28;20049;-93
2023/07/22 08:04:03;;;;;;;2.10;1.73;;;;;;;;;;10263507;28;20049;-93
2023/07/22 08:09:10;;;;;;;2.85;1.90;;;;;;;;;;10253952;28;20047;-91
2023/07/22 08:14:14;;;;;;;4.75;3.10;;;;;;;;;;10276875;28;20039;-92
2023/07/22 08:19:22;;;;;;;5.00;3.00;;;;;;;;;;10277986;28;20085;-90
2023/07/22 08:24:26;;;;;;;3.88;2.65;;;;;;;;;;10257090;28;20050;-93
2023/07/22 08:29:31;;;;;;;3.25;2.50;;;;;;;;;;10245501;28;20042;-91
2023/07/22 08:34:38;;;;;;;4.50;2.88;;;;;;;;;;10241001;28;20046;-91
2023/07/22 08:39:42;;;;;;;3.40;2.65;;;;;;;;;;10254057;28;20066;-91
2023/07/22 08:44:49;;;;;;;3.17;1.85;;;;;;;;;;10264459;28;20553;-93
2023/07/22 08:49:58;;;;;;;3.80;2.45;;;;;;;;;;10255271;28;20576;-91
2023/07/22 08:55:05;;;;;;;2.63;1.92;;;;;;;;;;10266340;28;20054;-91
2023/07/22 09:00:11;;;;;;;5.03;3.15;;;;;;;;;;10278527;28;20510;-91
2023/07/22 09:05:17;;;;;;;3.97;3.10;;;;;;;;;;10244944;28;20122;-91
2023/07/22 09:10:21;;;;;;;4.15;2.88;;;;;;;;;;10258121;28;20085;-92
2023/07/22 09:15:27;;;;;;;3.10;2.58;;;;;;;;;;10256736;28;20069;-91
2023/07/22 09:20:32;;;;;;;4.60;2.83;;;;;;;;;;10265817;28;20059;-93
2023/07/22 09:25:36;;;;;;;7.38;3.30;;;;;;;;;;10294535;28;20154;-93
2023/07/22 09:30:41;;;;;;;3.97;2.65;;;;;;;;;;10260219;28;20046;-92
2023/07/22 09:35:55;;;;;;;5.35;3.30;;;;;;;;;;10266308;28;20529;-92
2023/07/22 09:41:00;;;;;;;3.10;2.58;;;;;;;;;;10254731;28;20039;-92
2023/07/22 09:46:10;;;;;;;4.25;2.80;;;;;;;;;;10288256;28;20108;-91
2023/07/22 09:51:33;;;;;;;4.63;2.30;;;;;;;;;;10276394;28;20411;-92
2023/07/22 09:56:45;;;;;;;3.10;2.60;;;;;;;;;;10243518;28;20055;-91
2023/07/22 10:01:51;;;;;;;4.03;2.53;;;;;;;;;;10279245;28;20047;-91
2023/07/22 10:06:59;;;;;;;3.15;2.28;;;;;;;;;;10271667;28;20058;-93
2023/07/22 10:12:08;;;;;;;4.30;2.28;;;;;;;;;;10278951;28;20047;-92
2023/07/22 10:17:13;;;;;;;2.92;2.10;;;;;;;;;;10270574;28;20047;-92
2023/07/22 10:22:18;;;;;;;5.13;2.40;;;;;;;;;;10259098;28;20130;-93
2023/07/22 10:27:23;;;;;;;3.22;2.00;;;;;;;;;;10257045;28;20094;-92
2023/07/22 10:32:34;;;;;;;3.97;2.90;;;;;;;;;;10277007;28;20146;-91
2023/07/22 10:37:41;;;;;;;4.82;2.58;;;;;;;;;;10268532;28;20530;-91
2023/07/22 10:42:54;;;;;;;3.70;2.15;;;;;;;;;;10290403;28;20094;-92
2023/07/22 10:48:11;;;;;;;2.85;2.10;;;;;;;;;;10274651;28;20042;-92
2023/07/22 10:53:30;;;;;;;3.08;2.33;;;;;;;;;;10280227;28;20053;-90
2023/07/22 10:58:56;;;;;;;2.38;1.75;;;;;;;;;;10265209;28;20054;-91
2023/07/22 11:04:14;;;;;;;2.55;1.80;;;;;;;;;;10283073;28;20048;-91
2023/07/22 11:09:38;;;;;;;3.83;2.20;;;;;;;;;;10247619;28;20074;-90
2023/07/22 11:14:47;;;;;;;3.78;2.08;;;;;;;;;;10238980;28;20522;-91
2023/07/22 11:19:51;;;;;;;2.65;2.10;;;;;;;;;;10273204;28;20474;-92
2023/07/22 11:24:57;;;;;;;2.65;2.20;;;;;;;;;;10263376;28;20122;-90
2023/07/22 11:30:07;;;;;;;2.70;2.10;;;;;;;;;;10277937;28;20430;-91
2023/07/22 11:35:16;;;;;;;2.90;2.40;;;;;;;;;;10275053;28;20082;-90
2023/07/22 11:40:24;;;;;;;2.83;1.90;;;;;;;;;;10266357;28;20039;-91
2023/07/22 11:45:28;;;;;;;3.03;2.08;;;;;;;;;;10260194;28;20045;-93
2023/07/22 11:50:35;;;;;;;4.82;2.50;;;;;;;;;;10258488;28;20138;-92
2023/07/22 11:55:41;;;;;;;6.50;2.20;;;;;;;;;;10276982;28;20061;-91
2023/07/22 12:00:45;;;;;;;3.13;2.10;;;;;;;;;;10268453;28;20062;-92
2023/07/22 12:05:57;;;;;;;2.80;2.15;;;;;;;;;;10268556;28;20056;-92
2023/07/22 12:11:05;;;;;;;5.38;2.45;;;;;;;;;;10253071;28;20034;-92
2023/07/22 12:16:08;;;;;;;3.00;2.15;;;;;;;;;;10287043;28;20047;-91
2023/07/22 12:21:12;;;;;;;3.83;2.90;;;;;;;;;;10280707;28;20062;-91
2023/07/22 12:26:18;;;;;;;3.45;2.47;;;;;;;;;;10250440;28;20698;-91
2023/07/22 12:31:25;;;;;;;3.08;2.40;;;;;;;;;;10269648;28;20047;-90
2023/07/22 12:36:28;;;;;;;3.03;2.50;;;;;;;;;;10258266;28;20055;-90
2023/07/22 12:41:33;;;;;;;2.72;2.25;;;;;;;;;;10273718;28;20046;-90
2023/07/22 12:46:39;;;;;;;6.57;3.38;;;;;;;;;;10254855;28;20051;-90
2023/07/22 12:51:43;;;;;;;4.60;3.15;;;;;;;;;;10251762;28;20047;-92
2023/07/22 12:56:51;;;;;;;4.13;3.08;;;;;;;;;;10259357;28;20042;-91
2023/07/22 13:01:55;;;;;;;4.15;2.72;;;;;;;;;;10273094;28;20067;-91
2023/07/22 13:07:01;;;;;;;5.03;3.10;;;;;;;;;;10261167;28;20050;-90
2023/07/22 13:12:08;;;;;;;5.13;3.42;;;;;;;;;;10247757;28;20581;-91
2023/07/22 13:17:12;;;;;;;3.05;2.75;;;;;;;;;;10246452;28;20098;-91
2023/07/22 13:22:16;;;;;;;3.63;2.42;;;;;;;;;;10273046;28;20046;-91
2023/07/22 13:27:22;;;;;;;3.95;2.80;;;;;;;;;;10258207;28;20113;-90
2023/07/22 13:32:27;;;;;;;4.00;2.83;;;;;;;;;;10261905;28;20058;-90
2023/07/22 13:37:34;;;;;;;4.67;2.97;;;;;;;;;;10250179;28;20055;-91
2023/07/22 13:42:39;;;;;;;5.13;2.72;;;;;;;;;;10275209;28;20294;-92
2023/07/22 13:47:43;;;;;;;4.25;2.75;;;;;;;;;;10245227;28;20138;-92
2023/07/22 13:52:47;;;;;;;3.50;2.90;;;;;;;;;;10262909;28;20130;-91
2023/07/22 13:57:52;;;;;;;3.33;2.42;;;;;;;;;;10253121;28;20069;-90
2023/07/22 14:02:57;;;;;;;7.10;3.35;;;;;;;;;;10293726;28;20415;-92
2023/07/22 14:08:01;;;;;;;4.23;3.03;;;;;;;;;;10251399;28;20282;-90
2023/07/22 14:13:06;;;;;;;4.00;2.50;;;;;;;;;;10264924;28;20050;-91
2023/07/22 14:18:10;;;;;;;3.60;2.78;;;;;;;;;;10290701;28;20106;-90
2023/07/22 14:23:14;;;;;;;3.10;2.60;;;;;;;;;;10254545;28;20131;-91
2023/07/22 14:28:19;;;;;;;3.72;2.17;;;;;;;;;;10279777;28;20039;-91
2023/07/22 14:33:23;;;;;;;4.45;2.65;;;;;;;;;;10254316;28;20063;-91
2023/07/22 14:38:27;;;;;;;2.88;2.42;;;;;;;;;;10259142;28;20035;-92
2023/07/22 14:43:33;;;;;;;3.07;2.37;;;;;;;;;;10282914;28;20120;-92
2023/07/22 14:48:36;;;;;;;2.00;1.80;;;;;;;;;;10258455;28;20031;-90
2023/07/22 14:53:40;;;;;;;2.83;2.30;;;;;;;;;;10282667;28;20502;-90
2023/07/22 14:58:46;;;;;;;3.90;2.70;;;;;;;;;;10256685;28;20047;-92
2023/07/22 15:03:50;;;;;;;3.35;2.70;;;;;;;;;;10253417;28;20082;-92
2023/07/22 15:08:54;;;;;;;3.60;2.40;;;;;;;;;;10272211;28;20085;-90
2023/07/22 15:13:59;;;;;;;4.18;2.42;;;;;;;;;;10271311;28;20051;-91
2023/07/22 15:19:05;;;;;;;3.33;2.55;;;;;;;;;;10262026;28;20043;-91
2023/07/22 15:24:09;;;;;;;2.80;1.90;;;;;;;;;;10270362;28;20051;-93
2023/07/22 15:29:19;;;;;;;2.95;2.35;;;;;;;;;;10266365;28;20470;-90
2023/07/22 15:34:24;;;;;;;2.97;2.15;;;;;;;;;;10269530;28;20097;-90
2023/07/22 15:39:29;;;;;;;2.70;2.20;;;;;;;;;;10259603;28;20045;-92
2023/07/22 15:44:37;;;;;;;3.33;2.50;;;;;;;;;;10289939;28;20126;-92
2023/07/22 15:49:42;;;;;;;3.95;2.20;;;;;;;;;;10263183;28;20047;-92
2023/07/22 15:54:50;;;;;;;3.88;2.20;;;;;;;;;;10272395;28;20514;-91
2023/07/22 15:59:58;;;;;;;3.15;1.30;;;;;;;;;;10271828;28;20581;-92
2023/07/22 16:05:11;;;;;;;2.47;2.13;;;;;;;;;;10283944;28;20119;-92
2023/07/22 16:10:27;;;;;;;4.63;2.65;;;;;;;;;;10258625;28;20051;-92
2023/07/22 16:15:32;;;;;;;4.97;2.22;;;;;;;;;;10290015;28;20073;-93
2023/07/22 16:20:36;;;;;;;5.63;1.92;;;;;;;;;;10275569;28;20050;-92
2023/07/22 16:25:40;;;;;;;3.55;1.90;;;;;;;;;;10291227;28;20047;-91
2023/07/22 16:30:48;;;;;;;3.38;2.67;;;;;;;;;;10246248;28;20058;-93
2023/07/22 16:35:52;;;;;;;2.97;2.13;;;;;;;;;;10246815;28;20050;-92
2023/07/22 16:40:58;;;;;;;3.80;2.60;;;;;;;;;;10265630;28;20101;-93
2023/07/22 16:46:05;;;;;;;4.15;3.28;;;;;;;;;;10256848;28;20066;-92
2023/07/22 16:51:12;;;;;;;5.43;3.13;;;;;;;;;;10275691;28;20035;-92
2023/07/22 16:56:16;;;;;;;;;;;;;;;;;;10270194;28;20473;-91
2023/07/22 17:01:22;;;;;;;4.97;3.38;;;;;;;;;;10248573;28;19936;-92
2023/07/22 17:06:29;;;;;;;3.80;2.45;;;;;;;;;;10242944;28;20054;-92
2023/07/22 17:11:33;;;;;;;3.65;2.47;;;;;;;;;;10258290;28;20054;-92
2023/07/22 17:16:42;;;;;;;4.82;3.35;;;;;;;;;;10267923;28;20055;-93
2023/07/22 17:21:48;;;;;;;5.30;3.63;;;;;;;;;;10280450;28;20051;-92
2023/07/22 17:26:54;;;;;;;5.05;3.47;;;;;;;;;;10269669;28;20042;-93
2023/07/22 17:32:00;;;;;;;5.88;3.40;;;;;;;;;;10273781;28;20070;-93
2023/07/22 17:37:04;;;;;;;;;;;;;;;;;;10254750;28;20051;-92
2023/07/22 17:42:08;;;;;;;4.75;3.38;;;;;;;;;;10269394;28;19977;-91
2023/07/22 17:47:13;;;;;;;4.35;3.33;;;;;;;;;;10275251;28;20097;-92
2023/07/22 17:52:21;;;;;;;4.15;2.80;;;;;;;;;;10250890;28;20106;-92
2023/07/22 17:57:32;;;;;;;5.15;2.63;;;;;;;;;;10284119;28;20066;-92
2023/07/22 18:02:38;;;;;;;4.00;2.63;;;;;;;;;;10249965;28;20054;-92
2023/07/22 18:07:45;;;;;;;4.18;2.50;;;;;;;;;;10274461;28;20167;-93
2023/07/22 18:12:49;;;;;;;4.90;2.65;;;;;;;;;;10271656;28;20073;-93
2023/07/22 18:17:55;;;;;;;4.38;2.55;;;;;;;;;;10278472;28;20081;-93
2023/07/22 18:23:00;;;;;;;3.72;2.80;;;;;;;;;;10263113;28;20146;-92
2023/07/22 18:28:04;;;;;;;2.80;2.28;;;;;;;;;;10262919;28;20061;-94
2023/07/22 18:33:09;;;;;;;3.25;1.98;;;;;;;;;;10252380;28;20085;-94
2023/07/22 18:38:14;;;;;;;1.98;1.50;;;;;;;;;;10268380;28;20066;-93
2023/07/22 18:43:18;;;;;;;2.90;2.00;;;;;;;;;;10298635;28;20065;-93
2023/07/22 18:48:27;;;;;;;2.65;2.00;;;;;;;;;;10297607;28;20530;-94
2023/07/22 18:53:31;;;;;;;2.10;1.90;;;;;;;;;;10279737;28;20051;-93
2023/07/22 18:58:35;;;;;;;3.10;1.98;;;;;;;;;;10298310;28;20047;-93
2023/07/22 19:03:46;;;;;;;2.33;1.60;;;;;;;;;;10293227;28;20047;-93
2023/07/22 19:08:55;;;;;;;2.55;1.58;;;;;;;;;;10330647;28;20105;-92
2023/07/22 19:14:05;;;;;;;1.95;1.60;;;;;;;;;;10263887;28;20571;-93
2023/07/22 19:19:22;;;;;;;1.63;1.52;;;;;;;;;;10271258;28;20042;-93
2023/07/22 19:24:27;;;;;;;3.08;1.33;;;;;;;;;;10266424;28;20149;-92
2023/07/22 19:29:32;;;;;;;1.35;1.23;;;;;;;;;;10254762;28;20067;-93
2023/07/22 19:34:40;;;;;;;1.23;1.13;;;;;;;;;;10259950;28;20035;-92
2023/07/22 19:39:44;;;;;;;1.27;1.10;;;;;;;;;;10262518;28;20039;-91
2023/07/22 19:44:51;;;;;;;1.65;1.17;;;;;;;;;;10257559;28;20047;-92
2023/07/22 19:50:01;;;;;;;2.97;1.33;;;;;;;;;;10260904;28;20093;-92
2023/07/22 19:55:06;;;;;;;2.15;1.23;;;;;;;;;;10259916;28;20043;-92
2023/07/22 20:00:10;;;;;;;1.95;1.42;;;;;;;;;;10275283;28;20085;-92
2023/07/22 20:05:19;;;;;;;3.55;1.15;;;;;;;;;;10272232;28;20049;-92
2023/07/22 20:10:22;;;;;;;2.33;1.42;;;;;;;;;;10273038;28;20454;-92
2023/07/22 20:15:27;;;;;;;1.70;1.30;;;;;;;;;;10272625;28;20054;-91
2023/07/22 20:20:36;;;;;;;1.98;1.38;;;;;;;;;;10272968;28;20069;-92
2023/07/22 20:26:16;;;;;;;;;;;;;;;;;;;;;
2023/07/22 20:32:08;;;;;;;3.00;1.15;;;;;;;;;;10282386;28;20042;-92
2023/07/22 20:37:30;;;;;;;3.28;1.45;;;;;;;;;;10277879;28;20879;-92
2023/07/22 20:42:34;;;;;;;1.83;1.50;;;;;;;;;;10259660;28;20074;-92
2023/07/22 20:47:39;;;;;;;5.82;1.27;;;;;;;;;;10267584;28;20047;-92
2023/07/22 20:52:47;;;;;;;2.67;1.40;;;;;;;;;;10286057;28;20042;-92
2023/07/22 20:57:54;;;;;;;2.88;1.50;;;;;;;;;;10270442;28;20047;-92
2023/07/22 21:03:03;;;;;;;2.42;1.50;;;;;;;;;;10261503;28;20642;-92
2023/07/22 21:08:21;;;;;;;2.00;1.45;;;;;;;;;;10258314;28;20127;-92
2023/07/22 21:13:27;;;;;;;1.88;1.40;;;;;;;;;;10248229;28;20054;-92
2023/07/22 21:18:37;;;;;;;;;;;;;;;;;;10229960;29;20580;-94
2023/07/22 21:23:49;;;;;;;2.97;1.38;;;;;;;;;;10246029;29;20306;-95
2023/07/22 21:28:57;;;;;;;3.63;1.42;;;;;;;;;;10229899;29;20068;-95
2023/07/22 21:34:01;;;;;;;1.95;1.27;;;;;;;;;;10226774;29;20134;-92
2023/07/22 21:39:19;;;;;;;1.98;1.50;;;;;;;;;;10229500;29;20043;-92
2023/07/22 21:44:32;;;;;;;1.70;1.50;;;;;;;;;;10221532;29;20526;-96
2023/07/22 21:49:43;;;;;;;2.03;1.50;;;;;;;;;;10228707;29;20047;-93
2023/07/22 21:54:53;;;;;;;3.72;1.70;;;;;;;;;;10236800;28;20410;-92
2023/07/22 22:00:11;;;;;;;5.07;1.45;;;;;;;;;;10244277;28;20043;-93
2023/07/22 22:05:18;;;;;;;2.22;1.50;;;;;;;;;;10233434;28;20051;-94
2023/07/22 22:10:25;;;;;;;2.60;1.50;;;;;;;;;;10226795;29;20147;-94
2023/07/22 22:15:35;;;;;;;1.98;1.45;;;;;;;;;;10243288;29;20699;-93
2023/07/22 22:20:39;;;;;;;2.97;1.65;;;;;;;;;;10244655;28;20051;-93
2023/07/22 22:25:48;;;;;;;2.63;1.58;;;;;;;;;;10246781;28;20101;-93
2023/07/22 22:31:13;;;;;;;1.83;1.48;;;;;;;;;;10303161;28;20456;-94
2023/07/22 22:36:17;;;;;;;3.33;1.65;;;;;;;;;;10324683;28;20038;-93
2023/07/22 22:41:23;;;;;;;1.80;1.50;;;;;;;;;;10273919;28;20057;-94
2023/07/22 22:46:29;;;;;;;1.98;1.65;;;;;;;;;;10266268;28;20475;-95
2023/07/22 22:51:39;;;;;;;1.75;1.50;;;;;;;;;;10273402;28;20118;-94
2023/07/22 22:56:50;;;;;;;2.38;1.52;;;;;;;;;;10292689;28;20101;-96
2023/07/22 23:02:03;;;;;;;4.40;1.45;;;;;;;;;;10275515;28;20093;-95
2023/07/22 23:07:20;;;;;;;1.92;1.50;;;;;;;;;;10274100;28;20051;-94
2023/07/22 23:12:37;;;;;;;1.80;1.33;;;;;;;;;;10274455;28;20466;-94
2023/07/22 23:17:51;;;;;;;2.75;1.60;;;;;;;;;;10292419;28;20069;-94
2023/07/22 23:23:03;;;;;;;1.98;1.55;;;;;;;;;;10275613;28;20081;-94
2023/07/22 23:28:11;;;;;;;1.75;1.33;;;;;;;;;;10274865;28;20047;-94
2023/07/22 23:33:23;;;;;;;1.80;1.20;;;;;;;;;;10273647;28;20053;-94
2023/07/22 23:38:28;;;;;;;1.23;1.13;;;;;;;;;;10273489;28;20132;-96
2023/07/22 23:43:36;;;;;;;1.33;1.20;;;;;;;;;;10263181;28;20054;-94
2023/07/22 23:48:40;;;;;;;1.55;1.33;;;;;;;;;;10272884;28;20047;-94
2023/07/22 23:53:45;;;;;;;2.45;1.60;;;;;;;;;;10271746;28;20097;-94
2023/07/22 23:58:57;;;;;;;2.33;1.40;;;;;;;;;;10272682;28;20042;-95
